sensor_id;sensor_type;location;lat;lon;timestamp;pressure;altitude;pressure_sealevel;temperature;humidity
33414;BME280;60055;41.884;12.534;2023-06-14T00:00:45;100451.50;;;20.81;75.89
33414;BME280;60055;41.884;12.534;2023-06-14T00:03:11;100437.88;;;20.73;76.57
33414;BME280;60055;41.884;12.534;2023-06-14T00:05:39;100446.53;;;20.65;76.54
33414;BME280;60055;41.884;12.534;2023-06-14T00:08:11;100443.75;;;20.67;76.87
33414;BME280;60055;41.884;12.534;2023-06-14T00:10:39;100442.03;;;20.66;76.66
33414;BME280;60055;41.884;12.534;2023-06-14T00:13:07;100436.47;;;20.58;76.31
33414;BME280;60055;41.884;12.534;2023-06-14T00:15:33;100441.69;;;20.59;76.16
33414;BME280;60055;41.884;12.534;2023-06-14T00:17:59;100435.72;;;20.56;76.12
33414;BME280;60055;41.884;12.534;2023-06-14T00:20:30;100430.16;;;20.48;76.50
33414;BME280;60055;41.884;12.534;2023-06-14T00:22:59;100432.34;;;20.31;77.49
33414;BME280;60055;41.884;12.534;2023-06-14T00:25:25;100433.44;;;20.29;77.45
33414;BME280;60055;41.884;12.534;2023-06-14T00:27:52;100425.75;;;20.35;77.60
33414;BME280;60055;41.884;12.534;2023-06-14T00:30:18;100435.75;;;20.45;77.88
33414;BME280;60055;41.884;12.534;2023-06-14T00:32:44;100432.81;;;20.48;77.55
33414;BME280;60055;41.884;12.534;2023-06-14T00:35:10;100423.53;;;20.52;77.12
33414;BME280;60055;41.884;12.534;2023-06-14T00:37:36;100420.38;;;20.47;77.07
33414;BME280;60055;41.884;12.534;2023-06-14T00:40:03;100422.56;;;20.42;77.29
33414;BME280;60055;41.884;12.534;2023-06-14T00:42:29;100418.47;;;20.37;77.42
33414;BME280;60055;41.884;12.534;2023-06-14T00:44:55;100418.53;;;20.25;77.92
33414;BME280;60055;41.884;12.534;2023-06-14T00:47:21;100407.50;;;20.29;77.93
33414;BME280;60055;41.884;12.534;2023-06-14T00:49:47;100414.81;;;20.27;78.14
33414;BME280;60055;41.884;12.534;2023-06-14T00:52:16;100411.13;;;20.28;78.00
33414;BME280;60055;41.884;12.534;2023-06-14T00:54:42;100418.44;;;20.26;77.97
33414;BME280;60055;41.884;12.534;2023-06-14T00:57:12;100420.19;;;20.27;77.80
33414;BME280;60055;41.884;12.534;2023-06-14T00:59:42;100426.25;;;20.29;78.28
33414;BME280;60055;41.884;12.534;2023-06-14T01:02:07;100420.03;;;20.40;77.75
33414;BME280;60055;41.884;12.534;2023-06-14T01:04:33;100413.34;;;20.34;77.67
33414;BME280;60055;41.884;12.534;2023-06-14T01:07:14;100411.13;;;20.39;76.85
33414;BME280;60055;41.884;12.534;2023-06-14T01:10:09;100407.25;;;20.32;77.11
33414;BME280;60055;41.884;12.534;2023-06-14T01:15:12;100404.53;;;20.44;76.58
33414;BME280;60055;41.884;12.534;2023-06-14T01:17:39;100406.53;;;20.30;76.59
33414;BME280;60055;41.884;12.534;2023-06-14T01:20:07;100406.28;;;20.33;77.07
33414;BME280;60055;41.884;12.534;2023-06-14T01:22:42;100407.94;;;20.46;76.98
33414;BME280;60055;41.884;12.534;2023-06-14T01:25:08;100412.50;;;20.34;77.44
33414;BME280;60055;41.884;12.534;2023-06-14T01:27:34;100409.66;;;20.35;77.43
33414;BME280;60055;41.884;12.534;2023-06-14T01:29:59;100412.84;;;20.41;77.10
33414;BME280;60055;41.884;12.534;2023-06-14T01:32:28;100414.50;;;20.53;76.67
33414;BME280;60055;41.884;12.534;2023-06-14T01:34:54;100404.38;;;20.56;76.03
33414;BME280;60055;41.884;12.534;2023-06-14T01:37:21;100404.03;;;20.50;75.89
33414;BME280;60055;41.884;12.534;2023-06-14T01:39:48;100409.50;;;20.48;75.97
33414;BME280;60055;41.884;12.534;2023-06-14T01:42:15;100404.41;;;20.45;75.91
33414;BME280;60055;41.884;12.534;2023-06-14T01:44:42;100398.31;;;20.43;75.74
33414;BME280;60055;41.884;12.534;2023-06-14T01:47:09;100406.25;;;20.45;75.81
33414;BME280;60055;41.884;12.534;2023-06-14T01:49:35;100395.72;;;20.53;75.56
33414;BME280;60055;41.884;12.534;2023-06-14T01:52:00;100402.84;;;20.31;75.01
33414;BME280;60055;41.884;12.534;2023-06-14T01:54:26;100397.00;;;20.26;76.02
33414;BME280;60055;41.884;12.534;2023-06-14T01:56:52;100398.72;;;20.27;75.64
33414;BME280;60055;41.884;12.534;2023-06-14T01:59:18;100394.22;;;20.06;76.17
33414;BME280;60055;41.884;12.534;2023-06-14T02:01:44;100397.13;;;20.14;76.08
33414;BME280;60055;41.884;12.534;2023-06-14T02:04:11;100400.03;;;20.22;75.41
33414;BME280;60055;41.884;12.534;2023-06-14T02:06:36;100394.81;;;20.09;75.76
33414;BME280;60055;41.884;12.534;2023-06-14T02:09:02;100397.88;;;19.94;75.65
33414;BME280;60055;41.884;12.534;2023-06-14T02:11:28;100398.84;;;19.81;75.61
33414;BME280;60055;41.884;12.534;2023-06-14T02:13:53;100395.56;;;20.00;75.47
33414;BME280;60055;41.884;12.534;2023-06-14T02:16:20;100390.31;;;19.99;75.49
33414;BME280;60055;41.884;12.534;2023-06-14T02:18:45;100391.16;;;19.99;75.34
33414;BME280;60055;41.884;12.534;2023-06-14T02:21:11;100386.31;;;19.93;75.84
33414;BME280;60055;41.884;12.534;2023-06-14T02:23:36;100387.88;;;19.96;75.60
33414;BME280;60055;41.884;12.534;2023-06-14T02:26:02;100386.41;;;19.92;75.42
33414;BME280;60055;41.884;12.534;2023-06-14T02:28:28;100378.88;;;19.85;76.21
33414;BME280;60055;41.884;12.534;2023-06-14T02:30:53;100378.63;;;19.88;75.80
33414;BME280;60055;41.884;12.534;2023-06-14T02:33:18;100379.72;;;19.86;75.70
33414;BME280;60055;41.884;12.534;2023-06-14T02:35:45;100380.09;;;19.81;76.00
33414;BME280;60055;41.884;12.534;2023-06-14T02:38:11;100376.81;;;19.89;76.32
33414;BME280;60055;41.884;12.534;2023-06-14T02:40:37;100376.19;;;19.97;75.48
33414;BME280;60055;41.884;12.534;2023-06-14T02:43:02;100371.19;;;19.92;76.15
33414;BME280;60055;41.884;12.534;2023-06-14T02:45:27;100367.41;;;19.95;75.88
33414;BME280;60055;41.884;12.534;2023-06-14T02:47:53;100380.34;;;19.89;76.42
33414;BME280;60055;41.884;12.534;2023-06-14T02:50:20;100379.38;;;19.91;76.26
33414;BME280;60055;41.884;12.534;2023-06-14T02:52:46;100378.13;;;19.95;75.75
33414;BME280;60055;41.884;12.534;2023-06-14T02:55:12;100379.72;;;19.75;76.81
33414;BME280;60055;41.884;12.534;2023-06-14T02:57:38;100375.09;;;19.88;76.34
33414;BME280;60055;41.884;12.534;2023-06-14T03:00:04;100386.78;;;19.98;76.06
33414;BME280;60055;41.884;12.534;2023-06-14T03:02:29;100387.75;;;20.08;75.89
33414;BME280;60055;41.884;12.534;2023-06-14T03:04:55;100389.22;;;20.01;76.00
33414;BME280;60055;41.884;12.534;2023-06-14T03:07:20;100389.69;;;19.95;75.89
33414;BME280;60055;41.884;12.534;2023-06-14T03:09:48;100391.53;;;19.95;76.17
33414;BME280;60055;41.884;12.534;2023-06-14T03:12:14;100384.25;;;19.97;76.17
33414;BME280;60055;41.884;12.534;2023-06-14T03:14:40;100394.09;;;19.96;75.91
33414;BME280;60055;41.884;12.534;2023-06-14T03:17:07;100399.72;;;19.93;76.22
33414;BME280;60055;41.884;12.534;2023-06-14T03:19:33;100398.59;;;19.84;76.69
33414;BME280;60055;41.884;12.534;2023-06-14T03:21:58;100408.84;;;19.91;76.72
33414;BME280;60055;41.884;12.534;2023-06-14T03:24:24;100394.72;;;20.00;76.35
33414;BME280;60055;41.884;12.534;2023-06-14T03:26:52;100398.13;;;19.91;77.07
33414;BME280;60055;41.884;12.534;2023-06-14T03:29:18;100404.09;;;19.83;77.46
33414;BME280;60055;41.884;12.534;2023-06-14T03:32:04;100412.34;;;19.91;76.96
33414;BME280;60055;41.884;12.534;2023-06-14T03:34:29;100415.44;;;19.86;77.53
33414;BME280;60055;41.884;12.534;2023-06-14T03:36:55;100409.81;;;19.89;77.30
33414;BME280;60055;41.884;12.534;2023-06-14T03:39:21;100413.00;;;19.83;77.66
33414;BME280;60055;41.884;12.534;2023-06-14T03:41:47;100413.72;;;19.97;77.29
33414;BME280;60055;41.884;12.534;2023-06-14T03:44:15;100417.97;;;19.99;76.57
33414;BME280;60055;41.884;12.534;2023-06-14T03:46:41;100414.19;;;20.02;76.75
33414;BME280;60055;41.884;12.534;2023-06-14T03:49:07;100422.13;;;20.03;76.96
33414;BME280;60055;41.884;12.534;2023-06-14T03:51:32;100434.78;;;20.01;76.94
33414;BME280;60055;41.884;12.534;2023-06-14T03:54:00;100434.31;;;19.96;76.55
33414;BME280;60055;41.884;12.534;2023-06-14T03:56:26;100440.63;;;20.06;76.63
33414;BME280;60055;41.884;12.534;2023-06-14T03:58:52;100440.28;;;20.11;76.23
33414;BME280;60055;41.884;12.534;2023-06-14T04:01:18;100443.69;;;20.13;76.40
33414;BME280;60055;41.884;12.534;2023-06-14T04:03:43;100435.78;;;20.00;76.86
33414;BME280;60055;41.884;12.534;2023-06-14T04:06:09;100451.94;;;19.87;76.82
33414;BME280;60055;41.884;12.534;2023-06-14T04:08:34;100445.28;;;19.93;76.20
33414;BME280;60055;41.884;12.534;2023-06-14T04:11:01;100439.41;;;19.99;76.70
33414;BME280;60055;41.884;12.534;2023-06-14T04:13:26;100426.38;;;19.83;76.84
33414;BME280;60055;41.884;12.534;2023-06-14T04:15:51;100426.03;;;19.77;76.89
33414;BME280;60055;41.884;12.534;2023-06-14T04:18:17;100426.88;;;19.88;76.99
33414;BME280;60055;41.884;12.534;2023-06-14T04:20:44;100426.72;;;20.01;76.29
33414;BME280;60055;41.884;12.534;2023-06-14T04:23:14;100418.22;;;20.07;76.37
33414;BME280;60055;41.884;12.534;2023-06-14T04:25:40;100424.06;;;20.12;76.32
33414;BME280;60055;41.884;12.534;2023-06-14T04:28:13;100422.72;;;20.07;76.44
33414;BME280;60055;41.884;12.534;2023-06-14T04:30:40;100421.25;;;20.03;75.61
33414;BME280;60055;41.884;12.534;2023-06-14T04:33:05;100419.94;;;19.97;75.13
33414;BME280;60055;41.884;12.534;2023-06-14T04:35:32;100421.13;;;19.82;75.89
33414;BME280;60055;41.884;12.534;2023-06-14T04:37:58;100425.91;;;20.01;76.04
33414;BME280;60055;41.884;12.534;2023-06-14T04:40:24;100427.44;;;20.14;75.42
33414;BME280;60055;41.884;12.534;2023-06-14T04:42:50;100423.34;;;20.32;75.12
33414;BME280;60055;41.884;12.534;2023-06-14T04:45:16;100426.25;;;20.41;74.93
33414;BME280;60055;41.884;12.534;2023-06-14T04:47:42;100430.69;;;20.62;74.11
33414;BME280;60055;41.884;12.534;2023-06-14T04:50:08;100423.56;;;20.83;72.75
33414;BME280;60055;41.884;12.534;2023-06-14T04:52:36;100426.56;;;21.01;71.74
33414;BME280;60055;41.884;12.534;2023-06-14T04:55:02;100426.94;;;21.28;71.03
33414;BME280;60055;41.884;12.534;2023-06-14T04:57:28;100421.19;;;21.63;70.53
33414;BME280;60055;41.884;12.534;2023-06-14T04:59:54;100415.41;;;21.88;69.25
33414;BME280;60055;41.884;12.534;2023-06-14T05:02:23;100407.75;;;22.14;67.50
33414;BME280;60055;41.884;12.534;2023-06-14T05:04:50;100404.97;;;22.35;67.18
33414;BME280;60055;41.884;12.534;2023-06-14T05:07:15;100417.63;;;22.54;66.42
33414;BME280;60055;41.884;12.534;2023-06-14T05:09:41;100412.94;;;22.65;65.80
33414;BME280;60055;41.884;12.534;2023-06-14T05:12:06;100415.97;;;22.72;66.04
33414;BME280;60055;41.884;12.534;2023-06-14T05:14:35;100412.44;;;23.00;65.09
33414;BME280;60055;41.884;12.534;2023-06-14T05:17:01;100403.38;;;23.20;64.70
33414;BME280;60055;41.884;12.534;2023-06-14T05:19:27;100397.44;;;23.07;64.87
33414;BME280;60055;41.884;12.534;2023-06-14T05:21:53;100404.34;;;23.19;64.51
33414;BME280;60055;41.884;12.534;2023-06-14T05:24:18;100404.22;;;23.11;65.27
33414;BME280;60055;41.884;12.534;2023-06-14T05:26:45;100401.22;;;23.43;64.33
33414;BME280;60055;41.884;12.534;2023-06-14T05:29:10;100404.34;;;23.48;64.59
33414;BME280;60055;41.884;12.534;2023-06-14T05:31:36;100397.09;;;23.58;63.95
33414;BME280;60055;41.884;12.534;2023-06-14T05:34:02;100405.69;;;23.71;63.31
33414;BME280;60055;41.884;12.534;2023-06-14T05:36:27;100420.72;;;23.74;62.78
33414;BME280;60055;41.884;12.534;2023-06-14T05:38:53;100421.97;;;23.89;62.36
33414;BME280;60055;41.884;12.534;2023-06-14T05:41:28;100422.06;;;23.97;61.75
33414;BME280;60055;41.884;12.534;2023-06-14T05:43:55;100418.72;;;24.22;61.86
33414;BME280;60055;41.884;12.534;2023-06-14T05:46:21;100415.78;;;24.43;61.24
33414;BME280;60055;41.884;12.534;2023-06-14T05:48:51;100420.81;;;24.56;60.62
33414;BME280;60055;41.884;12.534;2023-06-14T05:51:17;100431.13;;;24.42;60.83
33414;BME280;60055;41.884;12.534;2023-06-14T05:53:46;100427.38;;;24.26;60.95
33414;BME280;60055;41.884;12.534;2023-06-14T05:56:12;100426.06;;;24.30;60.58
33414;BME280;60055;41.884;12.534;2023-06-14T05:58:41;100423.09;;;24.51;60.81
33414;BME280;60055;41.884;12.534;2023-06-14T06:01:07;100427.13;;;24.64;60.52
33414;BME280;60055;41.884;12.534;2023-06-14T06:03:43;100424.56;;;24.90;60.37
33414;BME280;60055;41.884;12.534;2023-06-14T06:06:13;100423.25;;;24.49;60.72
33414;BME280;60055;41.884;12.534;2023-06-14T06:08:44;100427.75;;;24.58;60.64
33414;BME280;60055;41.884;12.534;2023-06-14T06:11:10;100427.53;;;24.69;60.70
33414;BME280;60055;41.884;12.534;2023-06-14T06:13:43;100431.47;;;24.75;60.51
33414;BME280;60055;41.884;12.534;2023-06-14T06:16:18;100418.31;;;24.89;60.16
33414;BME280;60055;41.884;12.534;2023-06-14T06:18:52;100415.84;;;24.96;60.02
33414;BME280;60055;41.884;12.534;2023-06-14T06:21:24;100412.50;;;25.20;59.32
33414;BME280;60055;41.884;12.534;2023-06-14T06:23:52;100421.56;;;25.11;59.13
33414;BME280;60055;41.884;12.534;2023-06-14T06:26:18;100427.00;;;25.36;59.95
33414;BME280;60055;41.884;12.534;2023-06-14T06:28:43;100422.13;;;25.40;57.91
33414;BME280;60055;41.884;12.534;2023-06-14T06:31:15;100417.66;;;25.31;59.04
33414;BME280;60055;41.884;12.534;2023-06-14T06:33:49;100429.75;;;25.62;58.15
33414;BME280;60055;41.884;12.534;2023-06-14T06:36:17;100419.63;;;25.64;57.82
33414;BME280;60055;41.884;12.534;2023-06-14T06:38:45;100414.06;;;26.00;57.25
33414;BME280;60055;41.884;12.534;2023-06-14T06:41:18;100414.63;;;25.77;56.95
33414;BME280;60055;41.884;12.534;2023-06-14T06:43:51;100406.28;;;25.97;56.45
33414;BME280;60055;41.884;12.534;2023-06-14T06:46:16;100422.16;;;25.66;57.06
33414;BME280;60055;41.884;12.534;2023-06-14T06:48:59;100419.03;;;25.53;58.49
33414;BME280;60055;41.884;12.534;2023-06-14T06:51:27;100413.69;;;26.20;57.45
33414;BME280;60055;41.884;12.534;2023-06-14T06:54:01;100416.13;;;25.72;57.78
33414;BME280;60055;41.884;12.534;2023-06-14T06:56:26;100425.59;;;25.76;57.63
33414;BME280;60055;41.884;12.534;2023-06-14T06:58:55;100417.56;;;25.40;59.51
33414;BME280;60055;41.884;12.534;2023-06-14T07:01:21;100427.28;;;25.08;60.25
33414;BME280;60055;41.884;12.534;2023-06-14T07:03:47;100426.25;;;25.26;60.79
33414;BME280;60055;41.884;12.534;2023-06-14T07:06:12;100430.56;;;25.02;59.66
33414;BME280;60055;41.884;12.534;2023-06-14T07:08:38;100424.19;;;25.03;59.06
33414;BME280;60055;41.884;12.534;2023-06-14T07:11:07;100420.94;;;25.42;58.97
33414;BME280;60055;41.884;12.534;2023-06-14T07:13:33;100421.94;;;25.59;58.29
33414;BME280;60055;41.884;12.534;2023-06-14T07:15:59;100421.66;;;25.45;59.05
33414;BME280;60055;41.884;12.534;2023-06-14T07:18:26;100417.59;;;25.66;59.16
33414;BME280;60055;41.884;12.534;2023-06-14T07:20:52;100407.00;;;26.07;58.19
33414;BME280;60055;41.884;12.534;2023-06-14T07:23:18;100402.50;;;26.15;57.03
33414;BME280;60055;41.884;12.534;2023-06-14T07:25:44;100404.38;;;26.65;55.54
33414;BME280;60055;41.884;12.534;2023-06-14T07:28:10;100404.50;;;26.63;54.83
33414;BME280;60055;41.884;12.534;2023-06-14T07:30:35;100418.31;;;26.86;54.43
33414;BME280;60055;41.884;12.534;2023-06-14T07:33:01;100421.56;;;27.22;53.62
33414;BME280;60055;41.884;12.534;2023-06-14T07:35:26;100414.09;;;27.32;53.41
33414;BME280;60055;41.884;12.534;2023-06-14T07:37:51;100424.25;;;26.89;55.03
33414;BME280;60055;41.884;12.534;2023-06-14T07:40:18;100425.44;;;27.11;53.97
33414;BME280;60055;41.884;12.534;2023-06-14T07:42:43;100430.72;;;27.13;53.76
33414;BME280;60055;41.884;12.534;2023-06-14T07:45:09;100429.50;;;27.07;54.58
33414;BME280;60055;41.884;12.534;2023-06-14T07:47:34;100431.41;;;27.23;53.59
33414;BME280;60055;41.884;12.534;2023-06-14T07:50:00;100430.03;;;27.11;53.88
33414;BME280;60055;41.884;12.534;2023-06-14T07:52:25;100425.97;;;27.23;53.99
33414;BME280;60055;41.884;12.534;2023-06-14T07:54:51;100427.31;;;26.86;54.23
33414;BME280;60055;41.884;12.534;2023-06-14T07:57:16;100431.53;;;26.89;54.44
33414;BME280;60055;41.884;12.534;2023-06-14T07:59:42;100429.50;;;26.91;54.81
33414;BME280;60055;41.884;12.534;2023-06-14T08:02:07;100431.41;;;26.49;56.24
33414;BME280;60055;41.884;12.534;2023-06-14T08:04:33;100429.28;;;26.26;56.63
33414;BME280;60055;41.884;12.534;2023-06-14T08:06:59;100438.19;;;25.85;57.37
33414;BME280;60055;41.884;12.534;2023-06-14T08:09:25;100429.03;;;25.78;57.64
33414;BME280;60055;41.884;12.534;2023-06-14T08:11:53;100433.81;;;25.23;59.84
33414;BME280;60055;41.884;12.534;2023-06-14T08:14:18;100440.41;;;25.64;58.47
33414;BME280;60055;41.884;12.534;2023-06-14T08:16:43;100444.97;;;25.46;59.11
33414;BME280;60055;41.884;12.534;2023-06-14T08:19:09;100452.94;;;25.47;59.11
33414;BME280;60055;41.884;12.534;2023-06-14T08:21:34;100457.50;;;25.11;61.03
33414;BME280;60055;41.884;12.534;2023-06-14T08:24:02;100453.59;;;25.23;60.59
33414;BME280;60055;41.884;12.534;2023-06-14T08:26:27;100460.00;;;24.87;61.35
33414;BME280;60055;41.884;12.534;2023-06-14T08:28:56;100453.03;;;25.02;60.92
33414;BME280;60055;41.884;12.534;2023-06-14T08:31:22;100450.09;;;25.31;59.98
33414;BME280;60055;41.884;12.534;2023-06-14T08:33:48;100448.53;;;25.46;59.47
33414;BME280;60055;41.884;12.534;2023-06-14T08:36:13;100444.22;;;25.53;59.45
33414;BME280;60055;41.884;12.534;2023-06-14T08:38:39;100443.41;;;25.78;58.66
33414;BME280;60055;41.884;12.534;2023-06-14T08:41:05;100437.75;;;25.98;56.60
33414;BME280;60055;41.884;12.534;2023-06-14T08:43:34;100434.06;;;26.32;56.24
33414;BME280;60055;41.884;12.534;2023-06-14T08:46:03;100439.25;;;26.60;55.09
33414;BME280;60055;41.884;12.534;2023-06-14T08:48:30;100441.56;;;26.55;54.99
33414;BME280;60055;41.884;12.534;2023-06-14T08:51:02;100436.94;;;26.97;53.61
33414;BME280;60055;41.884;12.534;2023-06-14T08:53:30;100436.31;;;27.19;52.77
33414;BME280;60055;41.884;12.534;2023-06-14T08:55:58;100429.69;;;27.38;52.28
33414;BME280;60055;41.884;12.534;2023-06-14T08:58:27;100430.22;;;27.66;51.79
33414;BME280;60055;41.884;12.534;2023-06-14T09:00:55;100428.19;;;27.60;51.94
33414;BME280;60055;41.884;12.534;2023-06-14T09:03:21;100435.97;;;27.55;51.94
33414;BME280;60055;41.884;12.534;2023-06-14T09:05:48;100430.03;;;27.43;52.17
33414;BME280;60055;41.884;12.534;2023-06-14T09:08:13;100427.00;;;27.30;52.23
33414;BME280;60055;41.884;12.534;2023-06-14T09:10:40;100427.00;;;27.14;52.93
33414;BME280;60055;41.884;12.534;2023-06-14T09:13:06;100434.25;;;27.05;52.52
33414;BME280;60055;41.884;12.534;2023-06-14T09:15:31;100423.28;;;27.47;52.08
33414;BME280;60055;41.884;12.534;2023-06-14T09:17:57;100422.75;;;27.43;51.72
33414;BME280;60055;41.884;12.534;2023-06-14T09:20:24;100428.50;;;27.24;52.32
33414;BME280;60055;41.884;12.534;2023-06-14T09:22:50;100426.47;;;27.42;52.32
33414;BME280;60055;41.884;12.534;2023-06-14T09:25:16;100422.72;;;26.95;53.31
33414;BME280;60055;41.884;12.534;2023-06-14T09:27:41;100414.78;;;27.26;52.76
33414;BME280;60055;41.884;12.534;2023-06-14T09:30:09;100417.69;;;27.16;53.44
33414;BME280;60055;41.884;12.534;2023-06-14T09:32:38;100425.63;;;27.18;52.79
33414;BME280;60055;41.884;12.534;2023-06-14T09:35:08;100421.38;;;26.99;52.83
33414;BME280;60055;41.884;12.534;2023-06-14T09:37:34;100427.75;;;26.74;53.49
33414;BME280;60055;41.884;12.534;2023-06-14T09:40:00;100423.03;;;26.76;53.75
33414;BME280;60055;41.884;12.534;2023-06-14T09:42:26;100418.97;;;26.80;53.35
33414;BME280;60055;41.884;12.534;2023-06-14T09:44:53;100420.38;;;27.08;53.46
33414;BME280;60055;41.884;12.534;2023-06-14T09:47:20;100424.09;;;26.83;53.31
33414;BME280;60055;41.884;12.534;2023-06-14T09:49:46;100420.00;;;26.87;53.65
33414;BME280;60055;41.884;12.534;2023-06-14T09:52:17;100418.88;;;27.14;53.28
33414;BME280;60055;41.884;12.534;2023-06-14T09:54:45;100419.53;;;27.16;52.78
33414;BME280;60055;41.884;12.534;2023-06-14T09:57:16;100411.91;;;27.11;53.33
33414;BME280;60055;41.884;12.534;2023-06-14T09:59:46;100405.13;;;26.99;54.05
33414;BME280;60055;41.884;12.534;2023-06-14T10:02:25;100410.91;;;27.20;53.80
33414;BME280;60055;41.884;12.534;2023-06-14T10:05:11;100403.66;;;26.55;56.33
33414;BME280;60055;41.884;12.534;2023-06-14T10:07:59;100401.88;;;26.79;55.22
33414;BME280;60055;41.884;12.534;2023-06-14T10:10:25;100398.28;;;26.63;54.91
33414;BME280;60055;41.884;12.534;2023-06-14T10:12:51;100393.88;;;26.62;54.85
33414;BME280;60055;41.884;12.534;2023-06-14T10:15:32;100392.50;;;26.58;53.96
33414;BME280;60055;41.884;12.534;2023-06-14T10:18:16;100392.31;;;26.51;54.00
33414;BME280;60055;41.884;12.534;2023-06-14T10:23:37;100374.56;;;26.15;55.44
33414;BME280;60055;41.884;12.534;2023-06-14T10:26:03;100377.84;;;26.18;55.66
33414;BME280;60055;41.884;12.534;2023-06-14T10:28:28;100368.72;;;26.27;55.51
33414;BME280;60055;41.884;12.534;2023-06-14T10:31:05;100371.44;;;26.27;54.78
33414;BME280;60055;41.884;12.534;2023-06-14T10:33:49;100359.59;;;26.28;54.68
33414;BME280;60055;41.884;12.534;2023-06-14T10:36:31;100354.50;;;26.25;55.76
33414;BME280;60055;41.884;12.534;2023-06-14T10:38:59;100354.31;;;26.19;56.49
33414;BME280;60055;41.884;12.534;2023-06-14T10:41:27;100357.84;;;26.19;56.82
33414;BME280;60055;41.884;12.534;2023-06-14T10:46:35;100360.81;;;26.00;57.19
33414;BME280;60055;41.884;12.534;2023-06-14T10:49:01;100362.31;;;25.95;58.07
33414;BME280;60055;41.884;12.534;2023-06-14T10:51:29;100363.66;;;25.90;57.88
33414;BME280;60055;41.884;12.534;2023-06-14T10:53:57;100369.97;;;25.73;58.22
33414;BME280;60055;41.884;12.534;2023-06-14T10:56:30;100358.31;;;25.73;59.09
33414;BME280;60055;41.884;12.534;2023-06-14T10:58:57;100361.41;;;25.52;61.30
33414;BME280;60055;41.884;12.534;2023-06-14T11:04:41;100385.31;;;25.21;66.54
33414;BME280;60055;41.884;12.534;2023-06-14T11:12:41;100368.13;;;24.69;66.85
33414;BME280;60055;41.884;12.534;2023-06-14T11:15:08;100382.53;;;24.42;62.28
33414;BME280;60055;41.884;12.534;2023-06-14T11:17:33;100375.91;;;24.00;61.51
33414;BME280;60055;41.884;12.534;2023-06-14T11:20:12;100367.59;;;24.21;60.04
33414;BME280;60055;41.884;12.534;2023-06-14T11:22:41;100369.69;;;23.90;57.40
33414;BME280;60055;41.884;12.534;2023-06-14T11:25:11;100371.91;;;24.04;56.59
33414;BME280;60055;41.884;12.534;2023-06-14T11:27:36;100360.75;;;23.62;57.95
33414;BME280;60055;41.884;12.534;2023-06-14T11:30:02;100351.47;;;23.18;58.41
33414;BME280;60055;41.884;12.534;2023-06-14T11:32:28;100342.72;;;22.97;58.00
33414;BME280;60055;41.884;12.534;2023-06-14T11:34:53;100335.38;;;22.80;57.89
33414;BME280;60055;41.884;12.534;2023-06-14T11:37:19;100371.63;;;22.76;58.62
33414;BME280;60055;41.884;12.534;2023-06-14T11:39:45;100386.66;;;23.07;60.38
33414;BME280;60055;41.884;12.534;2023-06-14T11:42:16;100397.97;;;23.30;62.69
33414;BME280;60055;41.884;12.534;2023-06-14T11:44:45;100400.09;;;23.26;64.51
33414;BME280;60055;41.884;12.534;2023-06-14T11:47:11;100416.69;;;23.12;66.52
33414;BME280;60055;41.884;12.534;2023-06-14T11:49:36;100396.56;;;22.78;70.19
33414;BME280;60055;41.884;12.534;2023-06-14T11:52:02;100392.56;;;22.53;72.87
33414;BME280;60055;41.884;12.534;2023-06-14T11:54:27;100398.13;;;22.21;72.45
33414;BME280;60055;41.884;12.534;2023-06-14T11:56:53;100394.97;;;21.76;71.79
33414;BME280;60055;41.884;12.534;2023-06-14T11:59:20;100383.66;;;21.73;71.95
33414;BME280;60055;41.884;12.534;2023-06-14T12:01:47;100396.28;;;21.31;71.41
33414;BME280;60055;41.884;12.534;2023-06-14T12:04:13;100393.47;;;21.12;72.69
33414;BME280;60055;41.884;12.534;2023-06-14T12:06:38;100395.72;;;21.16;74.02
33414;BME280;60055;41.884;12.534;2023-06-14T12:09:05;100410.72;;;21.39;73.07
33414;BME280;60055;41.884;12.534;2023-06-14T12:11:35;100400.47;;;21.75;72.83
33414;BME280;60055;41.884;12.534;2023-06-14T12:14:05;100397.25;;;21.81;70.08
33414;BME280;60055;41.884;12.534;2023-06-14T12:16:35;100393.25;;;21.96;71.10
33414;BME280;60055;41.884;12.534;2023-06-14T12:19:13;100386.56;;;21.90;69.57
33414;BME280;60055;41.884;12.534;2023-06-14T12:21:39;100395.41;;;21.81;69.14
33414;BME280;60055;41.884;12.534;2023-06-14T12:24:08;100399.53;;;21.85;70.45
33414;BME280;60055;41.884;12.534;2023-06-14T12:26:38;100395.38;;;21.93;70.06
33414;BME280;60055;41.884;12.534;2023-06-14T12:29:05;100388.59;;;22.08;69.65
33414;BME280;60055;41.884;12.534;2023-06-14T12:31:31;100392.72;;;22.12;68.34
33414;BME280;60055;41.884;12.534;2023-06-14T12:33:56;100381.00;;;22.22;68.62
33414;BME280;60055;41.884;12.534;2023-06-14T12:36:22;100389.94;;;22.23;69.30
33414;BME280;60055;41.884;12.534;2023-06-14T12:38:47;100380.25;;;21.80;72.48
33414;BME280;60055;41.884;12.534;2023-06-14T12:41:13;100395.13;;;21.13;73.14
33414;BME280;60055;41.884;12.534;2023-06-14T12:43:39;100396.84;;;21.34;72.91
33414;BME280;60055;41.884;12.534;2023-06-14T12:46:18;100384.63;;;21.21;71.71
33414;BME280;60055;41.884;12.534;2023-06-14T12:48:44;100388.78;;;21.14;73.09
33414;BME280;60055;41.884;12.534;2023-06-14T12:51:09;100387.22;;;21.11;73.47
33414;BME280;60055;41.884;12.534;2023-06-14T12:53:35;100392.72;;;21.10;74.00
33414;BME280;60055;41.884;12.534;2023-06-14T12:56:00;100385.41;;;21.01;73.40
33414;BME280;60055;41.884;12.534;2023-06-14T12:58:26;100390.53;;;20.72;74.94